SBAX

Araxa Airport

Airport
ICAO code
SBAX
IATA Code
AAX
Summary
ICAO Region
CARSAM
ICAO Territory
Location

Araxa, Minas Gerais

Serving
Araxa
Elevation
3276 ft
Coordinates
19° 33' 38" S , 46° 57' 56" W
KCC
Metar
SBAX 151800Z 06007KT 9999 SCT035 SCT060 27/18 Q1017

Romeu Zema Airport is the airport serving Araxá, Brazil.

Climatology

Humid subtropical climate (Köppen climate classification Cwb)

Runways

Designator Length Width Surface Rops
15/33 1900 30 ASP No/No

Airport map

Aerial View

SKYbrary Partners:

Safety knowledge contributed by: